sensor_id;sensor_type;location;lat;lon;timestamp;temperature;humidity
72128;DHT22;60000;51.030;7.024;2022-07-23T00:00:32;17.70;81.02
72128;DHT22;60000;51.030;7.024;2022-07-23T00:02:58;17.66;81.38
72128;DHT22;60000;51.030;7.024;2022-07-23T00:05:23;17.63;81.46
72128;DHT22;60000;51.030;7.024;2022-07-23T00:07:48;17.61;81.67
72128;DHT22;60000;51.030;7.024;2022-07-23T00:10:14;17.61;82.21
72128;DHT22;60000;51.030;7.024;2022-07-23T00:12:39;17.58;82.80
72128;DHT22;60000;51.030;7.024;2022-07-23T00:15:06;17.55;83.41
72128;DHT22;60000;51.030;7.024;2022-07-23T00:17:32;17.52;84.14
72128;DHT22;60000;51.030;7.024;2022-07-23T00:19:57;17.42;83.92
72128;DHT22;60000;51.030;7.024;2022-07-23T00:22:23;17.40;84.64
72128;DHT22;60000;51.030;7.024;2022-07-23T00:24:48;17.40;85.21
72128;DHT22;60000;51.030;7.024;2022-07-23T00:27:14;17.40;85.25
72128;DHT22;60000;51.030;7.024;2022-07-23T00:29:39;17.39;85.46
72128;DHT22;60000;51.030;7.024;2022-07-23T00:32:05;17.40;85.81
72128;DHT22;60000;51.030;7.024;2022-07-23T00:34:30;17.36;85.77
72128;DHT22;60000;51.030;7.024;2022-07-23T00:36:56;17.29;85.58
72128;DHT22;60000;51.030;7.024;2022-07-23T00:39:21;17.25;85.57
72128;DHT22;60000;51.030;7.024;2022-07-23T00:41:48;17.22;85.60
72128;DHT22;60000;51.030;7.024;2022-07-23T00:44:21;17.22;85.82
72128;DHT22;60000;51.030;7.024;2022-07-23T00:46:51;17.25;86.21
72128;DHT22;60000;51.030;7.024;2022-07-23T00:49:29;17.25;86.21
72128;DHT22;60000;51.030;7.024;2022-07-23T00:51:56;17.29;86.49
72128;DHT22;60000;51.030;7.024;2022-07-23T00:54:25;17.29;86.38
72128;DHT22;60000;51.030;7.024;2022-07-23T00:56:50;17.25;86.21
72128;DHT22;60000;51.030;7.024;2022-07-23T00:59:16;17.19;86.31
72128;DHT22;60000;51.030;7.024;2022-07-23T01:01:42;17.11;86.15
72128;DHT22;60000;51.030;7.024;2022-07-23T01:04:09;17.08;86.33
72128;DHT22;60000;51.030;7.024;2022-07-23T01:06:36;17.08;86.91
72128;DHT22;60000;51.030;7.024;2022-07-23T01:09:03;17.06;86.72
72128;DHT22;60000;51.030;7.024;2022-07-23T01:11:29;17.04;86.75
72128;DHT22;60000;51.030;7.024;2022-07-23T01:13:55;17.01;87.18
72128;DHT22;60000;51.030;7.024;2022-07-23T01:16:20;17.00;86.99
72128;DHT22;60000;51.030;7.024;2022-07-23T01:18:45;16.95;86.66
72128;DHT22;60000;51.030;7.024;2022-07-23T01:21:12;16.95;87.01
72128;DHT22;60000;51.030;7.024;2022-07-23T01:23:38;16.97;87.35
72128;DHT22;60000;51.030;7.024;2022-07-23T01:26:04;17.03;87.65
72128;DHT22;60000;51.030;7.024;2022-07-23T01:28:29;17.04;87.67
72128;DHT22;60000;51.030;7.024;2022-07-23T01:30:55;17.03;87.89
72128;DHT22;60000;51.030;7.024;2022-07-23T01:33:20;17.04;88.24
72128;DHT22;60000;51.030;7.024;2022-07-23T01:35:46;17.01;88.31
72128;DHT22;60000;51.030;7.024;2022-07-23T01:38:11;17.01;88.30
72128;DHT22;60000;51.030;7.024;2022-07-23T01:40:36;17.00;88.31
72128;DHT22;60000;51.030;7.024;2022-07-23T01:43:02;16.95;88.32
72128;DHT22;60000;51.030;7.024;2022-07-23T01:45:27;16.98;88.67
72128;DHT22;60000;51.030;7.024;2022-07-23T01:47:52;16.94;88.24
72128;DHT22;60000;51.030;7.024;2022-07-23T01:50:18;16.94;88.50
72128;DHT22;60000;51.030;7.024;2022-07-23T01:52:43;16.98;88.72
72128;DHT22;60000;51.030;7.024;2022-07-23T01:55:09;16.98;88.58
72128;DHT22;60000;51.030;7.024;2022-07-23T01:57:34;16.95;88.02
72128;DHT22;60000;51.030;7.024;2022-07-23T01:59:59;16.95;87.75
72128;DHT22;60000;51.030;7.024;2022-07-23T02:02:25;16.94;87.95
72128;DHT22;60000;51.030;7.024;2022-07-23T02:04:50;16.92;88.25
72128;DHT22;60000;51.030;7.024;2022-07-23T02:07:15;16.92;88.26
72128;DHT22;60000;51.030;7.024;2022-07-23T02:09:41;16.91;88.16
72128;DHT22;60000;51.030;7.024;2022-07-23T02:12:06;16.90;87.89
72128;DHT22;60000;51.030;7.024;2022-07-23T02:14:31;16.88;88.42
72128;DHT22;60000;51.030;7.024;2022-07-23T02:16:57;16.90;88.37
72128;DHT22;60000;51.030;7.024;2022-07-23T02:19:22;16.91;88.50
72128;DHT22;60000;51.030;7.024;2022-07-23T02:21:48;16.91;88.44
72128;DHT22;60000;51.030;7.024;2022-07-23T02:24:14;16.91;88.37
72128;DHT22;60000;51.030;7.024;2022-07-23T02:26:39;16.88;88.46
72128;DHT22;60000;51.030;7.024;2022-07-23T02:29:04;16.91;88.82
72128;DHT22;60000;51.030;7.024;2022-07-23T02:31:30;16.90;88.73
72128;DHT22;60000;51.030;7.024;2022-07-23T02:33:56;16.88;88.65
72128;DHT22;60000;51.030;7.024;2022-07-23T02:36:22;16.87;88.81
72128;DHT22;60000;51.030;7.024;2022-07-23T02:38:47;16.87;88.72
72128;DHT22;60000;51.030;7.024;2022-07-23T02:41:13;16.84;88.62
72128;DHT22;60000;51.030;7.024;2022-07-23T02:43:38;16.84;88.64
72128;DHT22;60000;51.030;7.024;2022-07-23T02:46:04;16.84;88.88
72128;DHT22;60000;51.030;7.024;2022-07-23T02:48:30;16.84;88.98
72128;DHT22;60000;51.030;7.024;2022-07-23T02:50:55;16.84;88.83
72128;DHT22;60000;51.030;7.024;2022-07-23T02:53:22;16.83;88.72
72128;DHT22;60000;51.030;7.024;2022-07-23T02:55:47;16.81;88.96
72128;DHT22;60000;51.030;7.024;2022-07-23T02:58:12;16.79;88.65
72128;DHT22;60000;51.030;7.024;2022-07-23T03:00:38;16.74;88.60
72128;DHT22;60000;51.030;7.024;2022-07-23T03:03:03;16.73;88.64
72128;DHT22;60000;51.030;7.024;2022-07-23T03:05:28;16.70;88.85
72128;DHT22;60000;51.030;7.024;2022-07-23T03:07:54;16.67;88.68
72128;DHT22;60000;51.030;7.024;2022-07-23T03:10:19;16.61;88.39
72128;DHT22;60000;51.030;7.024;2022-07-23T03:12:44;16.55;88.23
72128;DHT22;60000;51.030;7.024;2022-07-23T03:15:10;16.50;88.38
72128;DHT22;60000;51.030;7.024;2022-07-23T03:17:35;16.45;88.49
72128;DHT22;60000;51.030;7.024;2022-07-23T03:20:00;16.40;88.41
72128;DHT22;60000;51.030;7.024;2022-07-23T03:22:26;16.36;88.27
72128;DHT22;60000;51.030;7.024;2022-07-23T03:24:51;16.33;89.07
72128;DHT22;60000;51.030;7.024;2022-07-23T03:27:20;16.30;88.82
72128;DHT22;60000;51.030;7.024;2022-07-23T03:29:46;16.26;89.11
72128;DHT22;60000;51.030;7.024;2022-07-23T03:32:11;16.21;89.39
72128;DHT22;60000;51.030;7.024;2022-07-23T03:34:37;16.18;89.39
72128;DHT22;60000;51.030;7.024;2022-07-23T03:37:02;16.11;89.36
72128;DHT22;60000;51.030;7.024;2022-07-23T03:39:28;16.09;89.57
72128;DHT22;60000;51.030;7.024;2022-07-23T03:41:53;16.06;89.81
72128;DHT22;60000;51.030;7.024;2022-07-23T03:44:18;16.01;89.65
72128;DHT22;60000;51.030;7.024;2022-07-23T03:46:44;15.98;89.81
72128;DHT22;60000;51.030;7.024;2022-07-23T03:49:09;15.99;89.61
72128;DHT22;60000;51.030;7.024;2022-07-23T03:51:34;15.94;90.20
72128;DHT22;60000;51.030;7.024;2022-07-23T03:54:00;15.95;90.35
72128;DHT22;60000;51.030;7.024;2022-07-23T03:56:25;15.94;90.67
72128;DHT22;60000;51.030;7.024;2022-07-23T03:58:51;15.94;90.80
72128;DHT22;60000;51.030;7.024;2022-07-23T04:01:16;15.91;90.79
72128;DHT22;60000;51.030;7.024;2022-07-23T04:03:42;15.94;90.91
72128;DHT22;60000;51.030;7.024;2022-07-23T04:06:07;15.94;90.94
72128;DHT22;60000;51.030;7.024;2022-07-23T04:08:32;15.91;90.87
72128;DHT22;60000;51.030;7.024;2022-07-23T04:10:58;15.91;91.02
72128;DHT22;60000;51.030;7.024;2022-07-23T04:13:23;15.87;90.80
72128;DHT22;60000;51.030;7.024;2022-07-23T04:15:48;15.87;90.98
72128;DHT22;60000;51.030;7.024;2022-07-23T04:18:16;15.85;91.00
72128;DHT22;60000;51.030;7.024;2022-07-23T04:20:43;15.82;91.04
72128;DHT22;60000;51.030;7.024;2022-07-23T04:23:08;15.82;90.98
72128;DHT22;60000;51.030;7.024;2022-07-23T04:25:35;15.84;90.96
72128;DHT22;60000;51.030;7.024;2022-07-23T04:28:00;15.82;90.98
72128;DHT22;60000;51.030;7.024;2022-07-23T04:30:26;15.82;91.27
72128;DHT22;60000;51.030;7.024;2022-07-23T04:32:51;15.82;91.37
72128;DHT22;60000;51.030;7.024;2022-07-23T04:35:16;15.84;91.38
72128;DHT22;60000;51.030;7.024;2022-07-23T04:37:42;15.85;91.51
72128;DHT22;60000;51.030;7.024;2022-07-23T04:40:07;15.87;91.57
72128;DHT22;60000;51.030;7.024;2022-07-23T04:42:33;15.84;91.50
72128;DHT22;60000;51.030;7.024;2022-07-23T04:44:58;15.87;91.59
72128;DHT22;60000;51.030;7.024;2022-07-23T04:47:23;15.85;91.50
72128;DHT22;60000;51.030;7.024;2022-07-23T04:49:49;15.87;91.36
72128;DHT22;60000;51.030;7.024;2022-07-23T04:52:14;15.91;91.46
72128;DHT22;60000;51.030;7.024;2022-07-23T04:54:40;15.92;91.42
72128;DHT22;60000;51.030;7.024;2022-07-23T04:57:05;15.95;91.45
72128;DHT22;60000;51.030;7.024;2022-07-23T04:59:31;15.91;91.25
72128;DHT22;60000;51.030;7.024;2022-07-23T05:01:56;15.95;91.24
72128;DHT22;60000;51.030;7.024;2022-07-23T05:04:21;15.95;91.07
72128;DHT22;60000;51.030;7.024;2022-07-23T05:06:47;15.95;91.10
72128;DHT22;60000;51.030;7.024;2022-07-23T05:09:12;15.97;90.99
72128;DHT22;60000;51.030;7.024;2022-07-23T05:11:37;16.01;91.07
72128;DHT22;60000;51.030;7.024;2022-07-23T05:14:03;16.06;91.26
72128;DHT22;60000;51.030;7.024;2022-07-23T05:16:28;16.11;91.06
72128;DHT22;60000;51.030;7.024;2022-07-23T05:18:53;16.15;91.05
72128;DHT22;60000;51.030;7.024;2022-07-23T05:21:19;16.19;90.91
72128;DHT22;60000;51.030;7.024;2022-07-23T05:23:44;16.25;91.05
72128;DHT22;60000;51.030;7.024;2022-07-23T05:26:10;16.30;91.05
72128;DHT22;60000;51.030;7.024;2022-07-23T05:28:35;16.33;90.93
72128;DHT22;60000;51.030;7.024;2022-07-23T05:31:00;16.36;90.53
72128;DHT22;60000;51.030;7.024;2022-07-23T05:33:26;16.36;90.16
72128;DHT22;60000;51.030;7.024;2022-07-23T05:35:51;16.40;90.13
72128;DHT22;60000;51.030;7.024;2022-07-23T05:38:16;16.42;89.98
72128;DHT22;60000;51.030;7.024;2022-07-23T05:40:42;16.45;89.98
72128;DHT22;60000;51.030;7.024;2022-07-23T05:43:07;16.45;89.87
72128;DHT22;60000;51.030;7.024;2022-07-23T05:45:32;16.49;89.87
72128;DHT22;60000;51.030;7.024;2022-07-23T05:47:58;16.53;89.87
72128;DHT22;60000;51.030;7.024;2022-07-23T05:50:23;16.56;90.06
72128;DHT22;60000;51.030;7.024;2022-07-23T05:52:49;16.63;90.13
72128;DHT22;60000;51.030;7.024;2022-07-23T05:55:14;16.66;89.99
72128;DHT22;60000;51.030;7.024;2022-07-23T05:57:40;16.70;89.80
72128;DHT22;60000;51.030;7.024;2022-07-23T06:00:08;16.71;89.48
72128;DHT22;60000;51.030;7.024;2022-07-23T06:02:34;16.77;89.45
72128;DHT22;60000;51.030;7.024;2022-07-23T06:04:59;16.83;89.56
72128;DHT22;60000;51.030;7.024;2022-07-23T06:07:24;16.87;89.16
72128;DHT22;60000;51.030;7.024;2022-07-23T06:09:50;16.91;89.46
72128;DHT22;60000;51.030;7.024;2022-07-23T06:12:16;17.10;89.66
72128;DHT22;60000;51.030;7.024;2022-07-23T06:14:41;17.34;90.14
72128;DHT22;60000;51.030;7.024;2022-07-23T06:17:07;17.48;87.87
72128;DHT22;60000;51.030;7.024;2022-07-23T06:19:32;17.68;88.26
72128;DHT22;60000;51.030;7.024;2022-07-23T06:21:58;17.94;87.36
72128;DHT22;60000;51.030;7.024;2022-07-23T06:24:23;18.36;88.18
72128;DHT22;60000;51.030;7.024;2022-07-23T06:26:48;18.75;86.66
72128;DHT22;60000;51.030;7.024;2022-07-23T06:29:14;18.91;83.38
72128;DHT22;60000;51.030;7.024;2022-07-23T06:31:39;19.28;83.92
72128;DHT22;60000;51.030;7.024;2022-07-23T06:34:04;19.50;83.23
72128;DHT22;60000;51.030;7.024;2022-07-23T06:36:30;19.91;80.37
72128;DHT22;60000;51.030;7.024;2022-07-23T06:38:55;19.95;78.10
72128;DHT22;60000;51.030;7.024;2022-07-23T06:41:20;20.21;76.86
72128;DHT22;60000;51.030;7.024;2022-07-23T06:43:47;20.46;77.54
72128;DHT22;60000;51.030;7.024;2022-07-23T06:46:13;20.56;76.12
72128;DHT22;60000;51.030;7.024;2022-07-23T06:48:38;20.56;73.56
72128;DHT22;60000;51.030;7.024;2022-07-23T06:51:04;20.59;75.27
72128;DHT22;60000;51.030;7.024;2022-07-23T06:53:29;20.77;74.39
72128;DHT22;60000;51.030;7.024;2022-07-23T06:55:55;21.39;76.70
72128;DHT22;60000;51.030;7.024;2022-07-23T06:58:20;21.79;71.52
72128;DHT22;60000;51.030;7.024;2022-07-23T07:00:46;22.17;72.34
72128;DHT22;60000;51.030;7.024;2022-07-23T07:03:11;22.85;68.37
72128;DHT22;60000;51.030;7.024;2022-07-23T07:05:37;23.10;64.40
72128;DHT22;60000;51.030;7.024;2022-07-23T07:08:02;23.00;63.99
72128;DHT22;60000;51.030;7.024;2022-07-23T07:10:28;22.94;65.80
72128;DHT22;60000;51.030;7.024;2022-07-23T07:12:53;22.81;63.96
72128;DHT22;60000;51.030;7.024;2022-07-23T07:15:18;23.10;67.13
72128;DHT22;60000;51.030;7.024;2022-07-23T07:17:44;23.29;62.61
72128;DHT22;60000;51.030;7.024;2022-07-23T07:20:09;23.16;64.48
72128;DHT22;60000;51.030;7.024;2022-07-23T07:22:35;23.63;64.34
72128;DHT22;60000;51.030;7.024;2022-07-23T07:25:00;23.53;60.50
72128;DHT22;60000;51.030;7.024;2022-07-23T07:27:26;23.78;62.33
72128;DHT22;60000;51.030;7.024;2022-07-23T07:29:51;24.45;63.63
72128;DHT22;60000;51.030;7.024;2022-07-23T07:32:17;24.66;60.51
72128;DHT22;60000;51.030;7.024;2022-07-23T07:34:42;24.96;57.72
72128;DHT22;60000;51.030;7.024;2022-07-23T07:37:07;24.97;59.00
72128;DHT22;60000;51.030;7.024;2022-07-23T07:39:33;25.34;57.87
72128;DHT22;60000;51.030;7.024;2022-07-23T07:41:58;25.51;55.54
72128;DHT22;60000;51.030;7.024;2022-07-23T07:44:23;25.31;53.89
72128;DHT22;60000;51.030;7.024;2022-07-23T07:46:49;25.23;55.44
72128;DHT22;60000;51.030;7.024;2022-07-23T07:49:14;25.27;55.37
72128;DHT22;60000;51.030;7.024;2022-07-23T07:51:42;25.07;54.57
72128;DHT22;60000;51.030;7.024;2022-07-23T07:54:07;24.75;55.09
72128;DHT22;60000;51.030;7.024;2022-07-23T07:56:33;24.70;58.15
72128;DHT22;60000;51.030;7.024;2022-07-23T07:58:58;24.63;56.99
72128;DHT22;60000;51.030;7.024;2022-07-23T08:01:23;24.83;57.83
72128;DHT22;60000;51.030;7.024;2022-07-23T08:03:49;24.76;55.35
72128;DHT22;60000;51.030;7.024;2022-07-23T08:06:14;24.79;55.16
72128;DHT22;60000;51.030;7.024;2022-07-23T08:08:39;25.18;57.20
72128;DHT22;60000;51.030;7.024;2022-07-23T08:11:05;25.14;54.91
72128;DHT22;60000;51.030;7.024;2022-07-23T08:13:30;25.21;54.68
72128;DHT22;60000;51.030;7.024;2022-07-23T08:15:55;25.03;54.03
72128;DHT22;60000;51.030;7.024;2022-07-23T08:18:21;24.83;55.49
72128;DHT22;60000;51.030;7.024;2022-07-23T08:20:46;24.86;53.15
72128;DHT22;60000;51.030;7.024;2022-07-23T08:23:11;24.88;53.74
72128;DHT22;60000;51.030;7.024;2022-07-23T08:25:41;24.83;53.68
72128;DHT22;60000;51.030;7.024;2022-07-23T08:28:11;25.24;54.86
72128;DHT22;60000;51.030;7.024;2022-07-23T08:30:37;25.72;52.32
72128;DHT22;60000;51.030;7.024;2022-07-23T08:33:05;26.22;54.31
72128;DHT22;60000;51.030;7.024;2022-07-23T08:35:47;26.65;52.36
72128;DHT22;60000;51.030;7.024;2022-07-23T08:38:15;26.67;48.64
72128;DHT22;60000;51.030;7.024;2022-07-23T08:40:42;26.27;47.67
72128;DHT22;60000;51.030;7.024;2022-07-23T08:43:15;26.24;49.25
72128;DHT22;60000;51.030;7.024;2022-07-23T08:45:43;25.92;48.73
72128;DHT22;60000;51.030;7.024;2022-07-23T08:48:15;25.55;48.03
72128;DHT22;60000;51.030;7.024;2022-07-23T08:50:48;25.31;50.57
72128;DHT22;60000;51.030;7.024;2022-07-23T08:53:15;26.07;52.70
72128;DHT22;60000;51.030;7.024;2022-07-23T08:55:46;26.81;50.51
72128;DHT22;60000;51.030;7.024;2022-07-23T08:58:12;26.72;48.99
72128;DHT22;60000;51.030;7.024;2022-07-23T09:00:38;26.82;47.34
72128;DHT22;60000;51.030;7.024;2022-07-23T09:03:03;26.84;49.28
72128;DHT22;60000;51.030;7.024;2022-07-23T09:05:29;27.38;49.32
72128;DHT22;60000;51.030;7.024;2022-07-23T09:08:14;27.63;44.68
72128;DHT22;60000;51.030;7.024;2022-07-23T09:15:49;28.25;45.44
72128;DHT22;60000;51.030;7.024;2022-07-23T09:18:16;28.83;46.89
72128;DHT22;60000;51.030;7.024;2022-07-23T09:20:41;28.72;43.01
72128;DHT22;60000;51.030;7.024;2022-07-23T09:23:07;28.38;47.67
72128;DHT22;60000;51.030;7.024;2022-07-23T09:25:32;28.27;43.53
72128;DHT22;60000;51.030;7.024;2022-07-23T09:27:59;28.63;47.61
72128;DHT22;60000;51.030;7.024;2022-07-23T09:30:30;29.13;45.44
72128;DHT22;60000;51.030;7.024;2022-07-23T09:35:53;29.96;42.15
72128;DHT22;60000;51.030;7.024;2022-07-23T09:38:20;30.13;40.94
72128;DHT22;60000;51.030;7.024;2022-07-23T09:40:46;30.33;42.19
72128;DHT22;60000;51.030;7.024;2022-07-23T09:43:14;29.48;39.92
72128;DHT22;60000;51.030;7.024;2022-07-23T09:45:50;29.57;42.75
72128;DHT22;60000;51.030;7.024;2022-07-23T09:48:16;29.67;41.93
72128;DHT22;60000;51.030;7.024;2022-07-23T09:50:44;30.08;43.96
72128;DHT22;60000;51.030;7.024;2022-07-23T09:53:23;30.23;41.43
72128;DHT22;60000;51.030;7.024;2022-07-23T09:55:51;29.99;42.94
72128;DHT22;60000;51.030;7.024;2022-07-23T09:58:19;30.27;40.71
72128;DHT22;60000;51.030;7.024;2022-07-23T10:00:47;30.37;39.44
72128;DHT22;60000;51.030;7.024;2022-07-23T10:03:14;30.44;38.57
72128;DHT22;60000;51.030;7.024;2022-07-23T10:05:40;29.58;38.41
72128;DHT22;60000;51.030;7.024;2022-07-23T10:08:11;29.45;40.38
72128;DHT22;60000;51.030;7.024;2022-07-23T10:10:39;29.76;42.43
72128;DHT22;60000;51.030;7.024;2022-07-23T10:13:04;30.06;42.86
72128;DHT22;60000;51.030;7.024;2022-07-23T10:15:50;30.01;38.85
72128;DHT22;60000;51.030;7.024;2022-07-23T10:18:16;29.84;40.44
72128;DHT22;60000;51.030;7.024;2022-07-23T10:20:41;30.17;41.04
72128;DHT22;60000;51.030;7.024;2022-07-23T10:28:44;30.48;41.34
72128;DHT22;60000;51.030;7.024;2022-07-23T10:31:31;30.70;38.88
72128;DHT22;60000;51.030;7.024;2022-07-23T10:37:00;30.43;37.29
72128;DHT22;60000;51.030;7.024;2022-07-23T10:39:33;30.46;37.41
72128;DHT22;60000;51.030;7.024;2022-07-23T10:42:11;30.22;34.58
72128;DHT22;60000;51.030;7.024;2022-07-23T10:44:39;30.13;38.93
72128;DHT22;60000;51.030;7.024;2022-07-23T10:47:06;30.01;37.93
72128;DHT22;60000;51.030;7.024;2022-07-23T10:49:35;30.44;38.93
72128;DHT22;60000;51.030;7.024;2022-07-23T10:52:21;30.77;36.81
72128;DHT22;60000;51.030;7.024;2022-07-23T10:54:51;30.32;35.40
72128;DHT22;60000;51.030;7.024;2022-07-23T10:57:21;30.34;36.21
72128;DHT22;60000;51.030;7.024;2022-07-23T11:02:28;30.57;36.27
72128;DHT22;60000;51.030;7.024;2022-07-23T11:04:56;30.25;35.15
72128;DHT22;60000;51.030;7.024;2022-07-23T11:07:24;30.67;37.68
72128;DHT22;60000;51.030;7.024;2022-07-23T11:09:49;30.68;34.30
72128;DHT22;60000;51.030;7.024;2022-07-23T11:17:24;29.81;37.85
72128;DHT22;60000;51.030;7.024;2022-07-23T11:25:13;29.30;34.06
72128;DHT22;60000;51.030;7.024;2022-07-23T11:27:44;29.17;37.07
72128;DHT22;60000;51.030;7.024;2022-07-23T11:30:45;29.50;37.24
72128;DHT22;60000;51.030;7.024;2022-07-23T11:33:15;30.08;35.93
72128;DHT22;60000;51.030;7.024;2022-07-23T11:35:43;30.15;35.44
72128;DHT22;60000;51.030;7.024;2022-07-23T11:38:18;30.47;34.02
72128;DHT22;60000;51.030;7.024;2022-07-23T11:40:45;30.41;34.04
72128;DHT22;60000;51.030;7.024;2022-07-23T11:43:12;30.47;33.67
72128;DHT22;60000;51.030;7.024;2022-07-23T11:45:46;30.78;35.27
72128;DHT22;60000;51.030;7.024;2022-07-23T11:48:21;30.83;33.54
72128;DHT22;60000;51.030;7.024;2022-07-23T11:50:46;30.65;32.68
72128;DHT22;60000;51.030;7.024;2022-07-23T11:53:12;30.26;33.31
72128;DHT22;60000;51.030;7.024;2022-07-23T11:55:38;30.68;34.45
72128;DHT22;60000;51.030;7.024;2022-07-23T11:58:03;30.88;33.23
72128;DHT22;60000;51.030;7.024;2022-07-23T12:00:30;30.98;34.61
72128;DHT22;60000;51.030;7.024;2022-07-23T12:03:01;31.32;36.45
72128;DHT22;60000;51.030;7.024;2022-07-23T12:05:30;31.26;35.25
72128;DHT22;60000;51.030;7.024;2022-07-23T12:07:56;31.46;34.59
72128;DHT22;60000;51.030;7.024;2022-07-23T12:10:28;31.39;33.55
72128;DHT22;60000;51.030;7.024;2022-07-23T12:13:02;31.58;33.86
72128;DHT22;60000;51.030;7.024;2022-07-23T12:15:36;31.58;34.70
72128;DHT22;60000;51.030;7.024;2022-07-23T12:18:07;31.59;33.38
72128;DHT22;60000;51.030;7.024;2022-07-23T12:20:35;31.66;35.05
72128;DHT22;60000;51.030;7.024;2022-07-23T12:23:04;32.13;34.77
72128;DHT22;60000;51.030;7.024;2022-07-23T12:25:33;32.04;32.94
72128;DHT22;60000;51.030;7.024;2022-07-23T12:28:27;31.59;32.83
72128;DHT22;60000;51.030;7.024;2022-07-23T12:30:54;31.60;33.54
72128;DHT22;60000;51.030;7.024;2022-07-23T12:33:24;31.63;33.97
72128;DHT22;60000;51.030;7.024;2022-07-23T12:35:50;31.83;34.76
72128;DHT22;60000;51.030;7.024;2022-07-23T12:38:17;31.80;34.15
72128;DHT22;60000;51.030;7.024;2022-07-23T12:40:50;31.77;33.87
72128;DHT22;60000;51.030;7.024;2022-07-23T12:45:54;31.84;33.07
72128;DHT22;60000;51.030;7.024;2022-07-23T12:48:23;31.65;32.28
72128;DHT22;60000;51.030;7.024;2022-07-23T12:51:01;31.49;32.31
72128;DHT22;60000;51.030;7.024;2022-07-23T12:53:32;31.39;32.63
72128;DHT22;60000;51.030;7.024;2022-07-23T12:56:07;31.31;33.02
72128;DHT22;60000;51.030;7.024;2022-07-23T12:58:46;31.38;34.32
72128;DHT22;60000;51.030;7.024;2022-07-23T13:04:05;31.41;33.87
72128;DHT22;60000;51.030;7.024;2022-07-23T13:06:32;31.49;33.54
72128;DHT22;60000;51.030;7.024;2022-07-23T13:08:58;31.58;34.21
72128;DHT22;60000;51.030;7.024;2022-07-23T13:11:24;31.82;33.67
72128;DHT22;60000;51.030;7.024;2022-07-23T13:13:49;31.65;32.90
72128;DHT22;60000;51.030;7.024;2022-07-23T13:16:15;31.60;31.48
72128;DHT22;60000;51.030;7.024;2022-07-23T13:18:41;31.45;33.13
72128;DHT22;60000;51.030;7.024;2022-07-23T13:21:08;31.18;31.28
72128;DHT22;60000;51.030;7.024;2022-07-23T13:23:33;31.10;33.06
72128;DHT22;60000;51.030;7.024;2022-07-23T13:25:59;31.11;33.23
72128;DHT22;60000;51.030;7.024;2022-07-23T13:28:24;30.78;33.34
72128;DHT22;60000;51.030;7.024;2022-07-23T13:30:50;30.80;33.88
72128;DHT22;60000;51.030;7.024;2022-07-23T13:33:21;30.71;32.94
72128;DHT22;60000;51.030;7.024;2022-07-23T13:35:47;30.29;33.83
72128;DHT22;60000;51.030;7.024;2022-07-23T13:38:13;30.09;34.44
72128;DHT22;60000;51.030;7.024;2022-07-23T13:40:41;29.98;33.88
72128;DHT22;60000;51.030;7.024;2022-07-23T13:43:09;29.55;33.71
72128;DHT22;60000;51.030;7.024;2022-07-23T13:45:34;29.79;34.94
72128;DHT22;60000;51.030;7.024;2022-07-23T13:48:00;29.93;35.41
72128;DHT22;60000;51.030;7.024;2022-07-23T13:50:26;30.13;35.18
72128;DHT22;60000;51.030;7.024;2022-07-23T13:52:51;30.25;34.89
72128;DHT22;60000;51.030;7.024;2022-07-23T13:55:17;30.33;34.85
72128;DHT22;60000;51.030;7.024;2022-07-23T13:57:42;30.27;35.19
72128;DHT22;60000;51.030;7.024;2022-07-23T14:00:09;30.09;34.50
72128;DHT22;60000;51.030;7.024;2022-07-23T14:02:37;29.76;34.37
72128;DHT22;60000;51.030;7.024;2022-07-23T14:05:05;29.34;34.82
72128;DHT22;60000;51.030;7.024;2022-07-23T14:07:30;29.13;36.48
72128;DHT22;60000;51.030;7.024;2022-07-23T14:09:56;29.14;35.38
72128;DHT22;60000;51.030;7.024;2022-07-23T14:15:29;29.45;35.47
72128;DHT22;60000;51.030;7.024;2022-07-23T14:17:55;29.59;36.38
72128;DHT22;60000;51.030;7.024;2022-07-23T14:20:21;29.67;35.82
72128;DHT22;60000;51.030;7.024;2022-07-23T14:22:47;29.75;35.49
72128;DHT22;60000;51.030;7.024;2022-07-23T14:25:12;29.74;35.68
72128;DHT22;60000;51.030;7.024;2022-07-23T14:27:38;29.95;35.62
72128;DHT22;60000;51.030;7.024;2022-07-23T14:30:06;30.01;34.57
72128;DHT22;60000;51.030;7.024;2022-07-23T14:32:32;29.89;33.86
72128;DHT22;60000;51.030;7.024;2022-07-23T14:34:57;29.61;34.74
72128;DHT22;60000;51.030;7.024;2022-07-23T14:37:23;29.61;36.05
72128;DHT22;60000;51.030;7.024;2022-07-23T14:39:49;29.57;34.87
72128;DHT22;60000;51.030;7.024;2022-07-23T14:42:18;29.35;36.06
72128;DHT22;60000;51.030;7.024;2022-07-23T14:44:43;29.43;35.47
72128;DHT22;60000;51.030;7.024;2022-07-23T14:47:09;29.53;34.86
72128;DHT22;60000;51.030;7.024;2022-07-23T14:49:35;29.50;35.17
72128;DHT22;60000;51.030;7.024;2022-07-23T14:52:02;29.34;35.70
72128;DHT22;60000;51.030;7.024;2022-07-23T14:54:28;29.35;35.36
72128;DHT22;60000;51.030;7.024;2022-07-23T14:56:58;29.33;35.40
72128;DHT22;60000;51.030;7.024;2022-07-23T14:59:23;29.33;34.95
72128;DHT22;60000;51.030;7.024;2022-07-23T15:01:49;29.14;35.11
72128;DHT22;60000;51.030;7.024;2022-07-23T15:04:14;29.13;35.93
72128;DHT22;60000;51.030;7.024;2022-07-23T15:06:40;29.18;34.73
72128;DHT22;60000;51.030;7.024;2022-07-23T15:09:06;29.35;35.22
72128;DHT22;60000;51.030;7.024;2022-07-23T15:11:31;29.51;35.01
72128;DHT22;60000;51.030;7.024;2022-07-23T15:14:00;29.43;35.56
72128;DHT22;60000;51.030;7.024;2022-07-23T15:16:26;29.45;35.44
72128;DHT22;60000;51.030;7.024;2022-07-23T15:18:51;29.61;36.09
72128;DHT22;60000;51.030;7.024;2022-07-23T15:21:17;29.51;36.19
72128;DHT22;60000;51.030;7.024;2022-07-23T15:23:42;29.44;34.45
72128;DHT22;60000;51.030;7.024;2022-07-23T15:26:08;29.37;35.54
72128;DHT22;60000;51.030;7.024;2022-07-23T15:28:34;29.30;35.50
72128;DHT22;60000;51.030;7.024;2022-07-23T15:31:00;29.21;36.43
72128;DHT22;60000;51.030;7.024;2022-07-23T15:33:26;29.27;36.50
72128;DHT22;60000;51.030;7.024;2022-07-23T15:35:51;29.38;36.44
72128;DHT22;60000;51.030;7.024;2022-07-23T15:38:20;29.43;36.66
72128;DHT22;60000;51.030;7.024;2022-07-23T15:40:46;29.14;35.73
72128;DHT22;60000;51.030;7.024;2022-07-23T15:43:11;29.13;36.91
72128;DHT22;60000;51.030;7.024;2022-07-23T15:45:36;29.13;36.30
72128;DHT22;60000;51.030;7.024;2022-07-23T15:48:02;29.17;37.64
72128;DHT22;60000;51.030;7.024;2022-07-23T15:50:27;29.14;36.24
72128;DHT22;60000;51.030;7.024;2022-07-23T15:52:53;29.16;36.59
72128;DHT22;60000;51.030;7.024;2022-07-23T15:55:18;29.10;36.41
72128;DHT22;60000;51.030;7.024;2022-07-23T15:57:44;29.06;36.67
72128;DHT22;60000;51.030;7.024;2022-07-23T16:00:10;29.04;35.54
72128;DHT22;60000;51.030;7.024;2022-07-23T16:02:36;29.20;35.99
72128;DHT22;60000;51.030;7.024;2022-07-23T16:05:01;29.21;36.45